Latest Weather Observations for Solomon Airport

IDW60801

Issued at 8:03 pm WST Thursday 22 June 2017 (issued every 30 minutes, with the page automatically refreshed every 10 minutes)

About weather observations | Map of weather stations | Latest weather observations for WA | Other Formats
Station Details ID: 505060 Name: SOLOMON AIRPORT Lat: -22.25 Lon: 117.85 Height: 611.47 m
Data from the previous 72 hours. | See also: Recent months for locations in Western Australia
Date/Time
WST
Temp
°C
App
Temp
°C
Dew
Point
°C
Rel
Hum
%
Delta-T
°C
Wind Press
QNH
hPa
Press
MSL
hPa
Rain since
9am
mm
Dir  Spd
km/h
Gust
km/h
Spd
kts
Gust
kts
22/08:00pm 19.8 17.4 6.9 43 6.7 WSW 9 13 5 7 1018.8 1016.6 0.0
22/07:30pm 20.2 17.3 6.5 41 7.1 WSW 11 13 6 7 1018.6 1016.4 0.0
22/07:00pm 20.5 17.6 6.5 40 7.3 WSW 11 17 6 9 1018.4 1016.2 0.0
22/06:30pm 19.4 17.1 5.8 41 6.9 W 7 9 4 5 1017.9 1015.7 0.0
22/06:00pm 21.5 19.2 5.8 36 8.1 SW 7 11 4 6 1017.2 1015.0 0.0
22/05:30pm 23.2 21.2 6.1 33 9.0 SW 6 9 3 5 1017.0 1014.8 0.0
22/05:00pm 23.8 21.1 5.7 31 9.4 SW 9 13 5 7 1016.7 1014.5 0.0
22/04:30pm 24.8 22.1 5.6 29 10.1 SW 9 15 5 8 1016.7 1014.5 0.0
22/04:00pm 24.5 21.1 5.8 30 9.8 SW 13 17 7 9 1016.8 1014.6 0.0
22/03:30pm 24.6 21.2 5.9 30 9.9 SW 13 19 7 10 1016.7 1014.5 0.0
22/03:00pm 24.7 22.0 5.5 29 10.0 SW 9 15 5 8 1016.8 1014.6 0.0
22/02:30pm 24.9 21.5 5.7 29 10.1 WSW 13 20 7 11 1016.8 1014.6 0.0
22/02:00pm 24.6 22.3 5.9 30 9.8 S 7 17 4 9 1017.0 1014.8 0.0
22/01:30pm 24.7 22.1 6.0 30 9.9 W 9 19 5 10 1017.2 1015.0 0.0
22/01:00pm 24.3 22.2 5.6 30 9.8 W 6 17 3 9 1017.8 1015.6 0.0
22/12:30pm 24.4 22.2 5.2 29 10.0 SW 6 13 3 7 1018.2 1016.0 0.0
22/12:00pm 23.9 20.5 5.8 31 9.5 SW 13 19 7 10 1018.8 1016.6 0.0
22/11:30am 23.5 21.4 5.9 32 9.2 S 6 11 3 6 1019.3 1017.1 0.0
22/11:00am 22.1 20.0 5.9 35 8.4 SSW 6 11 3 6 1019.7 1017.5 0.0
22/10:30am 20.9 19.0 6.8 40 7.4 SW 6 13 3 7 1020.2 1018.0 0.0
22/10:00am 20.0 18.4 6.4 41 7.0 S 4 9 2 5 1020.3 1018.1 0.0
22/09:30am 19.2 17.0 6.3 43 6.6 SW 7 11 4 6 1020.4 1018.2 0.0
22/09:00am 18.2 16.2 6.1 45 6.1 WSW 6 11 3 6 1020.4 1018.2 0.0
22/08:30am 17.5 15.5 6.1 47 5.8 W 6 7 3 4 1020.2 1018.0 0.0
22/08:00am 16.9 15.3 6.4 50 5.3 W 4 7 2 4 1020.0 1017.8 0.0
22/07:30am 15.8 13.2 6.3 53 4.8 W 9 11 5 6 1019.7 1017.5 0.0
22/07:00am 15.3 13.5 5.5 52 4.8 WNW 4 6 2 3 1019.4 1017.2 0.0
22/06:30am 15.1 12.9 5.3 52 4.8 W 6 9 3 5 1019.4 1017.2 0.0
22/06:00am 14.8 12.4 5.1 52 4.7 WNW 7 9 4 5 1019.2 1017.0 0.0
22/05:30am 14.7 12.2 5.0 52 4.7 W 7 9 4 5 1018.9 1016.7 0.0
22/05:00am 14.8 12.3 4.8 51 4.8 W 7 7 4 4 1018.7 1016.5 0.0
22/04:30am 14.6 12.3 4.6 51 4.8 WNW 6 7 3 4 1018.8 1016.6 0.0
22/04:00am 14.2 11.5 3.7 49 4.9 WNW 7 9 4 5 1018.9 1016.7 0.0
22/03:30am 13.9 11.7 3.4 49 4.9 W 4 6 2 3 1018.9 1016.7 0.0
22/03:00am 14.8 13.0 3.3 46 5.4 WSW 2 6 1 3 1019.2 1017.0 0.0
22/02:30am 14.5 11.9 3.3 47 5.2 WSW 6 7 3 4 1019.4 1017.2 0.0
22/02:00am 13.6 11.2 4.2 53 4.4 WNW 6 7 3 4 1019.5 1017.3 0.0
22/01:30am 13.3 11.2 3.7 52 4.5 WSW 4 6 2 3 1019.5 1017.3 0.0
22/01:00am 13.6 11.5 3.7 51 4.6 WNW 4 4 2 2 1019.6 1017.4 0.0
22/12:30am 12.5 10.7 3.5 54 4.2 W 2 6 1 3 1019.7 1017.5 0.0
22/12:00am 14.6 12.4 3.4 47 5.2 NW 4 6 2 3 1019.9 1017.7 0.0
 
Date/Time
WST
Temp
°C
App
Temp
°C
Dew
Point
°C
Rel
Hum
%
Delta-T
°C
Wind Press
QNH
hPa
Press
MSL
hPa
Rain since
9am
mm
Dir  Spd
km/h
Gust
km/h
Spd
kts
Gust
kts
21/11:30pm 13.4 10.9 3.5 51 4.6 NW 6 9 3 5 1019.9 1017.7 0.0
21/11:00pm 12.8 11.0 3.2 52 4.4 E 2 6 1 3 1019.9 1017.7 0.0
21/10:30pm 16.1 13.6 3.9 44 5.8 ENE 6 7 3 4 1019.9 1017.7 0.0
21/10:00pm 13.9 11.8 3.7 50 4.8 NNW 4 6 2 3 1020.0 1017.8 0.0
21/09:30pm 15.1 12.6 3.6 46 5.4 ENE 6 7 3 4 1020.1 1017.9 0.0
21/09:00pm 15.0 13.5 3.2 45 5.5 CALM 0 4 0 2 1020.0 1017.8 0.0
21/08:30pm 15.3 13.9 3.5 45 5.6 CALM 0 4 0 2 1019.9 1017.7 0.0
21/08:00pm 15.7 13.9 3.5 44 5.8 ENE 2 4 1 2 1019.6 1017.4 0.0
21/07:30pm 18.4 17.0 3.5 37 7.2 CALM 0 4 0 2 1019.2 1017.0 0.0
21/07:00pm 18.2 15.6 3.3 37 7.2 S 6 9 3 5 1018.9 1016.7 0.0
21/06:30pm 20.3 17.2 3.5 33 8.2 NNE 9 11 5 6 1018.3 1016.1 0.0
21/06:00pm 20.7 17.6 3.4 32 8.5 N 9 11 5 6 1017.9 1015.7 0.0
21/05:30pm 22.4 19.3 3.5 29 9.4 NE 9 13 5 7 1017.7 1015.5 0.0
21/05:00pm 23.8 20.6 3.2 26 10.3 NE 9 15 5 8 1017.5 1015.2 0.0
21/04:30pm 24.3 20.3 3.0 25 10.6 ENE 13 19 7 10 1017.3 1015.1 0.0
21/04:00pm 25.3 22.7 3.3 24 11.1 N 6 11 3 6 1017.1 1014.9 0.0
21/03:30pm 25.0 22.7 3.0 24 11.0 NNW 4 11 2 6 1017.0 1014.8 0.0
21/03:00pm 25.1 22.9 3.1 24 11.0 SE 4 9 2 5 1017.1 1014.9 0.0
21/02:30pm 25.1 22.4 3.7 25 10.9 N 7 13 4 7 1017.1 1014.9 0.0
21/02:00pm 24.7 22.2 3.9 26 10.6 NNW 6 13 3 7 1017.3 1015.1 0.0
21/01:30pm 24.7 22.5 3.4 25 10.7 SE 4 11 2 6 1017.7 1015.5 0.0
21/01:00pm 24.2 21.7 3.5 26 10.4 WSW 6 11 3 6 1018.1 1015.9 0.0
21/12:30pm 23.5 20.8 2.9 26 10.2 WSW 6 13 3 7 1018.5 1016.3 0.0
21/12:00pm 23.9 21.7 3.2 26 10.3 SSW 4 11 2 6 1018.8 1016.6 0.0
21/11:30am 23.5 21.3 3.4 27 10.1 N 4 9 2 5 1019.2 1017.0 0.0
21/11:00am 22.6 20.0 3.2 28 9.6 SE 6 11 3 6 1019.5 1017.3 0.0
21/10:30am 21.4 19.7 4.0 32 8.7 E 2 4 1 2 1019.9 1017.7 0.0
21/10:00am 19.3 17.1 3.5 35 7.7 E 4 6 2 3 1020.2 1018.0 0.0
21/09:30am 18.1 15.9 3.6 38 7.0 E 4 6 2 3 1020.3 1018.1 0.0
21/09:00am 16.6 14.8 3.7 42 6.2 SE 2 4 1 2 1020.4 1018.2 -
21/08:30am 15.7 13.9 3.5 44 5.8 ESE 2 4 1 2 1020.1 1017.9 -
21/08:00am 14.6 12.3 2.5 44 5.6 ENE 4 6 2 3 1020.0 1017.8 -
21/07:30am 14.2 11.3 1.5 42 5.7 E 6 7 3 4 1019.7 1017.5 -
21/07:00am 13.7 10.9 2.3 46 5.2 ENE 6 6 3 3 1019.5 1017.3 -
21/06:47am 13.3 10.4 2.5 48 4.9 ENE 7 7 4 4 1019.5 1017.3 -
21/06:37am 13.6 10.8 1.9 45 5.3 ENE 6 7 3 4 1019.4 1017.2 -
21/06:30am 13.4 10.4 2.0 46 5.1 ENE 7 9 4 5 1019.4 1017.2 -
21/06:00am 12.7 9.8 1.7 47 4.9 E 6 7 3 4 1019.2 1017.0 -
21/05:30am 12.2 9.4 2.1 50 4.5 E 6 7 3 4 1018.8 1016.6 -
21/05:00am 12.3 10.3 2.2 50 4.5 E 2 4 1 2 1018.9 1016.7 -
21/04:30am 11.6 8.8 1.8 51 4.3 NNE 6 7 3 4 1018.8 1016.6 -
21/04:00am 10.6 8.0 1.2 52 4.0 NE 4 4 2 2 1019.0 1016.8 -
21/03:30am 9.1 7.2 0.8 56 3.5 CALM 0 4 0 2 1018.9 1016.7 -
21/03:00am 11.8 9.1 0.6 46 4.8 E 4 7 2 4 1018.8 1016.6 0.0
21/02:30am 11.9 9.6 0.4 45 4.9 ESE 2 6 1 3 1018.9 1016.7 -
21/02:00am 11.4 9.2 1.1 49 4.5 S 2 4 1 2 1019.2 1017.0 -
21/01:30am 11.0 8.7 0.7 49 4.4 W 2 4 1 2 1019.4 1017.2 -
21/01:00am 10.1 7.1 1.0 53 3.9 W 6 7 3 4 1019.7 1017.5 -
21/12:30am 11.7 9.5 0.8 47 4.7 E 2 4 1 2 1019.6 1017.4 -
21/12:00am 13.4 10.8 0.8 42 5.5 NE 4 6 2 3 1019.7 1017.5 -
 
Date/Time
WST
Temp
°C
App
Temp
°C
Dew
Point
°C
Rel
Hum
%
Delta-T
°C
Wind Press
QNH
hPa
Press
MSL
hPa
Rain since
9am
mm
Dir  Spd
km/h
Gust
km/h
Spd
kts
Gust
kts
20/11:30pm 13.8 11.6 0.8 41 5.7 SE 2 6 1 3 1019.8 1017.6 -
20/11:00pm 13.1 11.2 0.5 42 5.5 CALM 0 2 0 1 1020.0 1017.8 -
20/10:30pm 13.4 11.1 0.4 41 5.7 ESE 2 6 1 3 1020.0 1017.8 -
20/10:00pm 17.3 14.7 0.9 33 7.4 ENE 4 6 2 3 1020.1 1017.9 -
20/09:30pm 15.9 14.1 0.9 36 6.7 CALM 0 4 0 2 1019.9 1017.7 -
20/09:00pm 15.9 13.3 0.9 36 6.7 ENE 4 6 2 3 1019.9 1017.7 0.0
20/08:30pm 17.7 15.1 0.8 32 7.7 NE 4 6 2 3 1020.0 1017.8 -
20/08:00pm 16.8 13.3 1.3 35 7.1 NE 9 11 5 6 1020.0 1017.8 -
20/07:30pm 16.2 14.4 1.1 36 6.8 CALM 0 6 0 3 1019.8 1017.6 -
20/07:00pm 17.5 14.3 0.6 32 7.6 WSW 7 11 4 6 1019.3 1017.1 -
20/06:30pm 20.0 16.5 1.0 28 8.9 NNE 9 15 5 8 1018.8 1016.6 -
20/06:00pm 18.2 15.7 1.3 32 7.8 N 4 6 2 3 1018.5 1016.3 -
20/05:30pm 20.6 18.2 2.0 29 8.9 NNW 4 6 2 3 1018.1 1015.9 -
20/05:00pm 24.4 22.1 0.7 21 11.3 NW 2 6 1 3 1017.9 1015.7 -
20/04:30pm 24.9 21.8 0.4 20 11.7 NW 6 13 3 7 1017.6 1015.3 -
20/04:00pm 25.0 22.3 0.5 20 11.7 N 4 9 2 5 1017.2 1015.0 -
20/03:30pm 24.9 21.9 1.1 21 11.5 SSE 6 11 3 6 1017.3 1015.1 -
20/03:00pm 24.9 21.9 1.1 21 11.5 W 6 9 3 5 1017.5 1015.2 -
20/10:30am 21.7 17.4 0.8 25 9.8 ENE 13 20 7 11 1020.7 1018.6 0.0
20/10:00am 21.2 16.6 1.5 27 9.3 ENE 15 22 8 12 1020.7 1018.6 0.0
20/09:30am 20.3 15.7 1.7 29 8.8 E 15 22 8 12 1021.1 1018.9 0.0
20/09:00am 17.5 15.5 2.3 36 7.1 SSW 2 6 1 3 1021.1 1018.9 0.0
20/08:30am 13.7 11.6 2.0 45 5.3 SW 2 4 1 2 1021.2 1019.0 0.0
20/08:00am 11.5 8.6 1.7 51 4.3 W 6 7 3 4 1021.2 1019.0 0.0
20/07:30am 9.4 6.9 1.8 59 3.3 W 4 6 2 3 1021.0 1018.8 0.0
20/07:00am 7.4 5.2 1.0 64 2.7 W 2 4 1 2 1020.7 1018.6 0.0
20/06:30am 8.3 6.1 1.0 60 3.1 SSE 2 6 1 3 1020.5 1018.3 0.0
20/06:00am 7.4 4.4 0.8 63 2.7 SW 6 6 3 3 1020.1 1017.9 0.0
20/05:30am 10.1 7.6 1.5 55 3.7 ESE 4 6 2 3 1019.9 1017.7 0.0
20/05:00am 8.4 6.6 1.1 60 3.1 CALM 0 2 0 1 1020.0 1017.8 0.0
20/04:30am 8.4 6.2 1.3 61 3.0 NW 2 6 1 3 1019.7 1017.5 0.0
20/04:00am 10.3 7.8 1.4 54 3.8 NNE 4 7 2 4 1019.8 1017.6 0.0
20/03:30am 9.9 7.7 1.3 55 3.7 SE 2 6 1 3 1019.8 1017.6 0.0
20/03:00am 10.8 8.3 1.6 53 4.0 ESE 4 6 2 3 1019.7 1017.5 0.0
20/02:30am 11.7 8.7 1.9 51 4.3 ENE 7 9 4 5 1019.8 1017.6 0.0
20/02:00am 10.6 8.2 1.9 55 3.8 ESE 4 6 2 3 1020.2 1018.0 0.0
20/01:30am 11.8 9.3 1.7 50 4.5 SE 4 4 2 2 1020.4 1018.2 0.0
20/01:00am 11.5 9.4 1.7 51 4.3 E 2 4 1 2 1020.3 1018.1 0.0
20/12:30am 11.5 9.4 1.7 51 4.3 ESE 2 4 1 2 1020.5 1018.3 0.0
20/12:00am 12.5 10.0 1.8 48 4.7 SE 4 6 2 3 1020.7 1018.6 0.0
 
Date/Time
WST
Temp
°C
App
Temp
°C
Dew
Point
°C
Rel
Hum
%
Delta-T
°C
Wind Press
QNH
hPa
Press
MSL
hPa
Rain since
9am
mm
Dir  Spd
km/h
Gust
km/h
Spd
kts
Gust
kts
19/11:30pm 14.2 11.4 2.1 44 5.5 E 6 7 3 4 1020.8 1018.7 0.0
19/11:00pm 14.0 11.6 2.0 44 5.4 SE 4 6 2 3 1021.0 1018.8 0.0
19/10:30pm 18.7 15.9 2.1 33 7.8 NE 6 9 3 5 1021.1 1018.9 0.0
19/10:00pm 18.8 15.5 2.2 33 7.8 NE 9 13 5 7 1021.2 1019.0 0.0
19/09:30pm 19.2 15.9 2.6 33 7.9 NE 9 13 5 7 1021.1 1018.9 0.0
19/09:00pm 19.7 16.0 2.6 32 8.2 NE 11 15 6 8 1020.8 1018.7 0.0
19/08:30pm 20.2 15.8 2.5 31 8.5 NE 15 22 8 12 1020.7 1018.6 0.0

Other Formats:

Comma delimited format used in spreadsheet applications
http://www.bom.gov.au/fwo/IDW60801/IDW60801.99217.axf

JavaScript Object Notation format (JSON) in row-major order
http://www.bom.gov.au/fwo/IDW60801/IDW60801.99217.json